Time;durP1;ratioP1;P1;durP2;ratioP2;P2;SDS_P1;SDS_P2;PMS_P1;PMS_P2;Temp;Humidity;BMP_temperature;BMP_pressure;BME280_temperature;BME280_humidity;BME280_pressure;Samples;Min_cycle;Max_cycle;Signal;HPM_P1;HPM_P2
2022/12/01 00:00:27;;;;;;;;;;;5.20;90.80;;;;;;5031373;28;19917;-77
2022/12/01 00:02:52;;;;;;;;;;;5.20;90.80;;;;;;5046828;28;19921;-77
2022/12/01 00:05:18;;;;;;;;;;;5.20;90.80;;;;;;5046196;28;19944;-77
2022/12/01 00:08:32;;;;;;;;;;;5.20;90.80;;;;;;5032962;28;19932;-76
2022/12/01 00:10:33;;;;;;;;;;;5.20;90.80;;;;;;4966641;28;19922;-76
2022/12/01 00:13:33;;;;;;;;;;;5.20;90.80;;;;;;5007414;28;20148;-76
2022/12/01 00:16:17;;;;;;;;;;;5.20;90.80;;;;;;5012986;28;19956;-77
2022/12/01 00:19:10;;;;;;;;;;;5.20;90.80;;;;;;4997915;28;19986;-77
2022/12/01 00:22:14;;;;;;;;;;;5.20;90.80;;;;;;5009609;28;19928;-77
2022/12/01 00:30:18;;;;;;;;;;;5.20;90.80;;;;;;4992226;28;19982;-77
2022/12/01 00:33:04;;;;;;;;;;;5.20;90.80;;;;;;4980287;28;19925;-77
2022/12/01 00:35:32;;;;;;;;;;;5.20;90.80;;;;;;4977608;28;19964;-77
2022/12/01 00:38:24;;;;;;;;;;;5.20;90.80;;;;;;5005694;28;19917;-76
2022/12/01 00:41:08;;;;;;;;;;;5.20;90.80;;;;;;4968170;28;19924;-78
2022/12/01 00:44:05;;;;;;;;;;;5.20;90.90;;;;;;5000588;28;19950;-76
2022/12/01 00:46:37;;;;;;;;;;;5.10;90.80;;;;;;4957083;28;19929;-78
2022/12/01 00:49:05;;;;;;;;;;;5.10;90.80;;;;;;4963424;28;19937;-76
2022/12/01 00:51:43;;;;;;;;;;;5.10;90.80;;;;;;4948862;28;19928;-77
2022/12/01 00:56:59;;;;;;;;;;;5.10;90.80;;;;;;4978239;28;19920;-77
2022/12/01 00:59:30;;;;;;;;;;;5.10;90.80;;;;;;4983213;28;20380;-76
2022/12/01 01:02:27;;;;;;;;;;;;;;;;;;;;;
2022/12/01 01:05:02;;;;;;;;;;;5.10;90.80;;;;;;5015318;28;19924;-75
2022/12/01 01:07:33;;;;;;;;;;;5.10;90.80;;;;;;4991081;28;19921;-77
2022/12/01 01:10:01;;;;;;;;;;;5.10;90.80;;;;;;4996191;28;19927;-78
2022/12/01 01:12:27;;;;;;;;;;;5.10;90.80;;;;;;5051189;28;20015;-77
2022/12/01 01:14:52;;;;;;;;;;;5.10;90.80;;;;;;5034147;28;19941;-77
2022/12/01 01:17:18;;;;;;;;;;;5.10;90.80;;;;;;5035185;28;19924;-77
2022/12/01 01:19:44;;;;;;;;;;;5.10;91.20;;;;;;5022880;28;20015;-77
2022/12/01 01:22:09;;;;;;;;;;;5.10;90.90;;;;;;5037710;28;19937;-76
2022/12/01 01:24:35;;;;;;;;;;;5.10;90.80;;;;;;5024349;28;19929;-76
2022/12/01 01:27:00;;;;;;;;;;;5.10;90.90;;;;;;5025880;28;20297;-77
2022/12/01 01:29:26;;;;;;;;;;;5.00;90.80;;;;;;5026091;28;20483;-77
2022/12/01 01:31:52;;;;;;;;;;;5.10;90.90;;;;;;5023556;28;19925;-77
2022/12/01 01:34:17;;;;;;;;;;;5.10;90.90;;;;;;5029739;28;19944;-76
2022/12/01 01:36:43;;;;;;;;;;;5.10;90.90;;;;;;5024259;28;19939;-77
2022/12/01 01:39:08;;;;;;;;;;;5.00;90.80;;;;;;5027280;28;20004;-77
2022/12/01 01:41:34;;;;;;;;;;;5.00;90.90;;;;;;5045395;28;19924;-75
2022/12/01 01:44:03;;;;;;;;;;;5.00;90.80;;;;;;5020512;28;19921;-78
2022/12/01 01:46:47;;;;;;;;;;;5.00;90.80;;;;;;4955261;28;19926;-78
2022/12/01 01:59:28;;;;;;;;;;;;;;;;;;;;;
2022/12/01 02:05:02;;;;;;;;;;;5.00;90.90;;;;;;5022881;22;19936;-78
2022/12/01 02:07:46;;;;;;;;;;;5.00;90.90;;;;;;4997503;28;20235;-77
2022/12/01 02:10:21;;;;;;;;;;;5.00;90.90;;;;;;4963663;28;19932;-76
2022/12/01 02:13:13;;;;;;;;;;;5.00;90.90;;;;;;4950870;28;19929;-77
2022/12/01 02:18:41;;;;;;;;;;;4.90;90.80;;;;;;4913651;28;19946;-76
2022/12/01 02:21:12;;;;;;;;;;;5.00;90.80;;;;;;4960315;28;19923;-76
2022/12/01 02:23:41;;;;;;;;;;;4.90;90.90;;;;;;4984513;28;19918;-75
2022/12/01 02:26:15;;;;;;;;;;;5.00;90.90;;;;;;5007314;28;20010;-75
2022/12/01 02:28:55;;;;;;;;;;;4.90;90.90;;;;;;5001875;28;19949;-75
2022/12/01 02:31:41;;;;;;;;;;;4.90;90.90;;;;;;4999771;28;19940;-75
2022/12/01 02:34:06;;;;;;;;;;;4.90;90.90;;;;;;5004215;28;19928;-75
2022/12/01 02:36:52;;;;;;;;;;;4.90;90.90;;;;;;5006485;28;20475;-75
2022/12/01 02:39:31;;;;;;;;;;;4.90;90.90;;;;;;5002598;28;19917;-75
2022/12/01 02:42:04;;;;;;;;;;;4.90;90.80;;;;;;5003041;28;19928;-78
2022/12/01 02:44:33;;;;;;;;;;;4.90;90.80;;;;;;4987465;28;19921;-77
2022/12/01 02:47:00;;;;;;;;;;;4.90;90.80;;;;;;4991846;28;19956;-77
2022/12/01 02:49:27;;;;;;;;;;;4.90;90.80;;;;;;4989377;28;19961;-77
2022/12/01 02:51:53;;;;;;;;;;;4.80;90.80;;;;;;4984958;28;19977;-77
2022/12/01 02:54:18;;;;;;;;;;;4.80;90.80;;;;;;4977691;28;20386;-76
2022/12/01 02:56:44;;;;;;;;;;;4.80;90.80;;;;;;5000555;28;19961;-76
2022/12/01 02:59:10;;;;;;;;;;;4.80;90.80;;;;;;4984893;28;19992;-76
2022/12/01 03:01:55;;;;;;;;;;;4.80;90.80;;;;;;4984983;28;20601;-77
2022/12/01 03:04:24;;;;;;;;;;;4.80;90.80;;;;;;5002893;28;19925;-77
2022/12/01 03:07:06;;;;;;;;;;;4.70;90.80;;;;;;4998538;28;19963;-77
2022/12/01 03:09:42;;;;;;;;;;;4.70;90.80;;;;;;4969280;28;19925;-77
2022/12/01 03:12:34;;;;;;;;;;;4.70;90.80;;;;;;4984250;28;20085;-77
2022/12/01 03:15:02;;;;;;;;;;;4.70;90.80;;;;;;4990054;28;19928;-78
2022/12/01 03:17:34;;;;;;;;;;;4.70;90.80;;;;;;4985242;28;19929;-77
2022/12/01 03:20:26;;;;;;;;;;;4.60;90.80;;;;;;4991030;28;19929;-78
2022/12/01 03:22:57;;;;;;;;;;;4.60;90.80;;;;;;5000108;28;20004;-76
2022/12/01 03:25:23;;;;;;;;;;;4.60;90.80;;;;;;5005104;28;19929;-78
2022/12/01 03:27:48;;;;;;;;;;;4.60;90.80;;;;;;5006788;28;19917;-78
2022/12/01 03:30:14;;;;;;;;;;;4.60;90.90;;;;;;5003047;28;19959;-76
2022/12/01 03:32:45;;;;;;;;;;;4.50;90.80;;;;;;5003787;28;19948;-76
2022/12/01 03:35:13;;;;;;;;;;;4.60;90.90;;;;;;5002895;28;19961;-76
2022/12/01 03:37:40;;;;;;;;;;;4.50;90.80;;;;;;5001909;28;20402;-77
2022/12/01 03:40:06;;;;;;;;;;;4.50;90.80;;;;;;5002545;28;20758;-78
2022/12/01 03:42:40;;;;;;;;;;;4.50;90.80;;;;;;5004282;28;19922;-78
2022/12/01 03:45:06;;;;;;;;;;;4.50;90.90;;;;;;5000931;28;19960;-77
2022/12/01 03:47:34;;;;;;;;;;;4.50;90.90;;;;;;5006138;28;19945;-77
2022/12/01 03:50:00;;;;;;;;;;;4.50;90.90;;;;;;5005130;28;20405;-78
2022/12/01 03:52:39;;;;;;;;;;;4.50;90.90;;;;;;5004526;28;20071;-77
2022/12/01 03:55:12;;;;;;;;;;;4.40;90.90;;;;;;5001196;28;19921;-77
2022/12/01 03:57:56;;;;;;;;;;;4.40;90.80;;;;;;5001742;28;20580;-78
2022/12/01 04:00:21;;;;;;;;;;;4.40;90.80;;;;;;5001058;28;19925;-77
2022/12/01 04:02:47;;;;;;;;;;;4.40;90.90;;;;;;5004355;28;19926;-77
2022/12/01 04:05:13;;;;;;;;;;;4.40;90.90;;;;;;5003363;28;20727;-77
2022/12/01 04:07:38;;;;;;;;;;;4.40;90.90;;;;;;5003691;28;20374;-78
2022/12/01 04:10:04;;;;;;;;;;;4.40;90.90;;;;;;5003619;28;19925;-77
2022/12/01 04:12:31;;;;;;;;;;;4.40;90.90;;;;;;5006925;28;19922;-77
2022/12/01 04:15:07;;;;;;;;;;;4.40;90.90;;;;;;5002939;28;19944;-77
2022/12/01 04:17:33;;;;;;;;;;;4.40;90.90;;;;;;5004197;28;19918;-77
2022/12/01 04:19:58;;;;;;;;;;;4.40;90.90;;;;;;5003044;28;20306;-78
2022/12/01 04:22:24;;;;;;;;;;;4.30;90.90;;;;;;5004882;28;19981;-77
2022/12/01 04:24:49;;;;;;;;;;;4.30;90.90;;;;;;5002759;28;19947;-76
2022/12/01 04:27:15;;;;;;;;;;;4.30;90.90;;;;;;5006447;28;19973;-75
2022/12/01 04:29:40;;;;;;;;;;;4.30;90.90;;;;;;5002399;28;19933;-77
2022/12/01 04:32:06;;;;;;;;;;;4.30;90.90;;;;;;5005227;28;19918;-75
2022/12/01 04:34:31;;;;;;;;;;;4.30;90.90;;;;;;5000397;28;19918;-75
2022/12/01 04:36:57;;;;;;;;;;;4.30;90.90;;;;;;5004498;28;19921;-75
2022/12/01 04:39:22;;;;;;;;;;;4.30;90.90;;;;;;5004109;28;19922;-76
2022/12/01 04:41:48;;;;;;;;;;;4.30;90.90;;;;;;5026446;28;20310;-74
2022/12/01 04:44:13;;;;;;;;;;;4.30;90.90;;;;;;5009888;28;19961;-75
2022/12/01 04:46:39;;;;;;;;;;;4.30;90.90;;;;;;5002895;28;20275;-76
2022/12/01 04:49:04;;;;;;;;;;;4.20;90.90;;;;;;5006635;28;19933;-75
2022/12/01 04:51:30;;;;;;;;;;;4.20;90.90;;;;;;5007312;28;19961;-75
2022/12/01 04:53:55;;;;;;;;;;;4.20;90.90;;;;;;5019759;28;20392;-76
2022/12/01 04:56:21;;;;;;;;;;;4.20;90.90;;;;;;4996410;28;19926;-76
2022/12/01 04:58:46;;;;;;;;;;;4.20;90.90;;;;;;4999872;28;20036;-75
2022/12/01 05:01:12;;;;;;;;;;;4.20;90.90;;;;;;4986299;28;20012;-75
2022/12/01 05:03:38;;;;;;;;;;;4.20;90.90;;;;;;4992979;28;19930;-75
2022/12/01 05:06:05;;;;;;;;;;;4.20;90.90;;;;;;5005430;28;19918;-75
2022/12/01 05:08:33;;;;;;;;;;;4.20;90.90;;;;;;5004588;28;19956;-75
2022/12/01 05:10:58;;;;;;;;;;;4.20;90.90;;;;;;5003442;28;19925;-76
2022/12/01 05:13:24;;;;;;;;;;;4.20;90.90;;;;;;5000765;28;20676;-76
2022/12/01 05:15:49;;;;;;;;;;;4.20;90.90;;;;;;4998886;28;20008;-75
2022/12/01 05:18:15;;;;;;;;;;;4.20;90.90;;;;;;4994234;28;19965;-75
2022/12/01 05:20:58;;;;;;;;;;;4.20;90.90;;;;;;5000734;28;19921;-76
2022/12/01 05:23:24;;;;;;;;;;;4.20;90.90;;;;;;4999638;28;19944;-75
2022/12/01 05:25:50;;;;;;;;;;;4.20;91.20;;;;;;5003238;28;19921;-76
2022/12/01 05:28:15;;;;;;;;;;;4.20;90.90;;;;;;5003782;28;19917;-75
2022/12/01 05:30:41;;;;;;;;;;;4.20;90.90;;;;;;5006890;28;19932;-75
2022/12/01 05:33:07;;;;;;;;;;;4.20;90.90;;;;;;5004710;28;19921;-74
2022/12/01 05:35:33;;;;;;;;;;;4.20;90.90;;;;;;5005502;28;19940;-74
2022/12/01 05:37:58;;;;;;;;;;;4.20;90.90;;;;;;5000472;28;20298;-75
2022/12/01 05:40:24;;;;;;;;;;;4.20;90.90;;;;;;5001340;28;19925;-75
2022/12/01 05:42:49;;;;;;;;;;;4.20;90.90;;;;;;4997150;28;19945;-76
2022/12/01 05:45:14;;;;;;;;;;;4.20;90.90;;;;;;4999813;28;19917;-74
2022/12/01 05:47:40;;;;;;;;;;;4.20;90.90;;;;;;5002331;28;19953;-74
2022/12/01 05:50:06;;;;;;;;;;;4.20;90.90;;;;;;5001728;28;19918;-74
2022/12/01 05:52:32;;;;;;;;;;;4.20;90.90;;;;;;5002835;28;19964;-75
2022/12/01 05:54:58;;;;;;;;;;;4.20;90.90;;;;;;4993767;28;20007;-75
2022/12/01 05:57:23;;;;;;;;;;;4.20;90.90;;;;;;4994160;28;20019;-74
2022/12/01 05:59:49;;;;;;;;;;;4.20;90.90;;;;;;4996762;28;20333;-75
2022/12/01 06:02:14;;;;;;;;;;;4.20;90.90;;;;;;4999614;28;20591;-76
2022/12/01 06:04:39;;;;;;;;;;;4.20;90.90;;;;;;5000381;28;19933;-76
2022/12/01 06:07:05;;;;;;;;;;;4.20;90.90;;;;;;5000868;28;20358;-75
2022/12/01 06:09:30;;;;;;;;;;;4.20;90.90;;;;;;5002675;28;19921;-76
2022/12/01 06:11:56;;;;;;;;;;;4.20;90.90;;;;;;4999648;28;19960;-76
2022/12/01 06:14:21;;;;;;;;;;;4.20;90.90;;;;;;5002598;28;19925;-76
2022/12/01 06:16:47;;;;;;;;;;;4.20;90.90;;;;;;5003957;28;19953;-76
2022/12/01 06:19:12;;;;;;;;;;;4.20;90.90;;;;;;5001992;28;19926;-75
2022/12/01 06:21:38;;;;;;;;;;;4.20;90.90;;;;;;4999516;28;19983;-75
2022/12/01 06:24:03;;;;;;;;;;;4.20;90.90;;;;;;5002948;28;19924;-75
2022/12/01 06:26:29;;;;;;;;;;;4.10;90.90;;;;;;5003301;28;20373;-74
2022/12/01 06:28:55;;;;;;;;;;;4.20;90.90;;;;;;5003240;28;19926;-75
2022/12/01 06:31:20;;;;;;;;;;;4.10;90.90;;;;;;5001198;28;19921;-74
2022/12/01 06:33:46;;;;;;;;;;;4.20;90.90;;;;;;5007192;28;19922;-77
2022/12/01 06:36:11;;;;;;;;;;;4.10;91.30;;;;;;5003853;28;20241;-77
2022/12/01 06:38:37;;;;;;;;;;;4.10;90.90;;;;;;5002077;28;19918;-76
2022/12/01 06:41:02;;;;;;;;;;;4.10;90.90;;;;;;5006241;28;19921;-77
2022/12/01 06:43:28;;;;;;;;;;;4.10;90.90;;;;;;5002952;28;19947;-76
2022/12/01 06:45:53;;;;;;;;;;;4.10;90.90;;;;;;5007423;28;19917;-75
2022/12/01 06:48:19;;;;;;;;;;;4.10;90.90;;;;;;5019213;28;19917;-76
2022/12/01 06:50:44;;;;;;;;;;;4.10;90.90;;;;;;5002051;28;20520;-76
2022/12/01 06:53:10;;;;;;;;;;;4.10;90.90;;;;;;5005794;28;19924;-76
2022/12/01 06:55:36;;;;;;;;;;;4.10;90.90;;;;;;5009102;28;20442;-76
2022/12/01 06:58:01;;;;;;;;;;;4.10;90.90;;;;;;4998464;28;19918;-75
2022/12/01 07:00:27;;;;;;;;;;;4.10;90.90;;;;;;4996545;28;19941;-75
2022/12/01 07:02:53;;;;;;;;;;;4.10;90.90;;;;;;4999215;28;19952;-75
2022/12/01 07:05:18;;;;;;;;;;;4.10;90.90;;;;;;5002422;28;19918;-75
2022/12/01 07:07:44;;;;;;;;;;;4.10;90.90;;;;;;4997319;28;19921;-76
2022/12/01 07:10:09;;;;;;;;;;;4.10;90.90;;;;;;4997692;28;19926;-75
2022/12/01 07:12:35;;;;;;;;;;;4.10;90.90;;;;;;4996148;28;19944;-78
2022/12/01 07:15:01;;;;;;;;;;;4.10;90.90;;;;;;4998794;28;19928;-77
2022/12/01 07:17:26;;;;;;;;;;;4.10;90.90;;;;;;4996411;28;19972;-77
2022/12/01 07:19:52;;;;;;;;;;;4.20;90.90;;;;;;4990133;28;20373;-77
2022/12/01 07:22:19;;;;;;;;;;;4.20;90.90;;;;;;4980944;28;21669;-78
2022/12/01 07:24:44;;;;;;;;;;;4.10;90.90;;;;;;4973868;28;20095;-76
2022/12/01 07:27:10;;;;;;;;;;;4.20;90.90;;;;;;4984358;28;20515;-75
2022/12/01 07:29:35;;;;;;;;;;;4.20;90.90;;;;;;4995753;28;19937;-76
2022/12/01 07:32:01;;;;;;;;;;;4.20;90.90;;;;;;4996099;28;19922;-75
2022/12/01 07:34:26;;;;;;;;;;;4.20;90.90;;;;;;4999433;28;19928;-76
2022/12/01 07:36:52;;;;;;;;;;;4.20;90.90;;;;;;4996955;28;19925;-77
2022/12/01 07:39:17;;;;;;;;;;;4.20;90.90;;;;;;5000218;28;19917;-76
2022/12/01 07:41:43;;;;;;;;;;;4.20;90.90;;;;;;4994323;28;19925;-77
2022/12/01 07:44:09;;;;;;;;;;;4.20;90.90;;;;;;4994928;28;19922;-77
2022/12/01 07:46:34;;;;;;;;;;;4.20;90.90;;;;;;4994488;28;20704;-75
2022/12/01 07:49:00;;;;;;;;;;;4.20;90.90;;;;;;4996969;28;19941;-76
2022/12/01 07:51:25;;;;;;;;;;;4.30;90.90;;;;;;4997946;28;19925;-75
2022/12/01 07:53:51;;;;;;;;;;;4.30;90.90;;;;;;4996933;28;20048;-77
2022/12/01 07:56:17;;;;;;;;;;;4.30;90.90;;;;;;5014223;28;19932;-77
2022/12/01 07:58:43;;;;;;;;;;;4.30;90.90;;;;;;4996511;28;19928;-77
2022/12/01 08:01:14;;;;;;;;;;;4.30;90.90;;;;;;4992714;28;20016;-76
2022/12/01 08:03:40;;;;;;;;;;;4.30;90.90;;;;;;4996745;28;20906;-78
2022/12/01 08:06:05;;;;;;;;;;;4.30;90.80;;;;;;4995434;28;19917;-77
2022/12/01 08:08:31;;;;;;;;;;;4.30;90.80;;;;;;4996399;28;19924;-77
2022/12/01 08:11:04;;;;;;;;;;;4.30;90.80;;;;;;4992605;28;19926;-77
2022/12/01 08:13:30;;;;;;;;;;;4.30;90.80;;;;;;4982355;28;19921;-78
2022/12/01 08:15:55;;;;;;;;;;;4.40;90.90;;;;;;4998760;28;19960;-78
2022/12/01 08:18:21;;;;;;;;;;;4.40;90.90;;;;;;4994577;28;20287;-78
2022/12/01 08:20:47;;;;;;;;;;;4.40;90.90;;;;;;4990560;28;19932;-77
2022/12/01 08:23:13;;;;;;;;;;;4.50;90.90;;;;;;5004826;28;21901;-77
2022/12/01 08:25:38;;;;;;;;;;;4.50;90.90;;;;;;4996359;28;19925;-77
2022/12/01 08:28:04;;;;;;;;;;;4.50;90.80;;;;;;4994778;28;19921;-78
2022/12/01 08:30:29;;;;;;;;;;;4.60;90.90;;;;;;4993981;28;19929;-78
2022/12/01 08:32:55;;;;;;;;;;;4.60;90.80;;;;;;4996554;28;20016;-78
2022/12/01 08:35:20;;;;;;;;;;;4.60;90.80;;;;;;4993673;28;19913;-77
2022/12/01 08:37:46;;;;;;;;;;;4.70;90.80;;;;;;4997311;28;19918;-76
2022/12/01 08:40:11;;;;;;;;;;;4.70;90.80;;;;;;4992700;28;19987;-76
2022/12/01 08:42:37;;;;;;;;;;;4.70;90.80;;;;;;4993234;28;19925;-77
2022/12/01 08:45:03;;;;;;;;;;;4.80;90.80;;;;;;4991785;28;19993;-77
2022/12/01 08:47:28;;;;;;;;;;;4.80;90.80;;;;;;4995812;28;19926;-77
2022/12/01 08:49:54;;;;;;;;;;;4.80;90.80;;;;;;4997057;28;19922;-76
2022/12/01 08:52:19;;;;;;;;;;;4.80;90.80;;;;;;4995403;28;20060;-76
2022/12/01 08:54:45;;;;;;;;;;;4.80;90.80;;;;;;4996733;28;19926;-78
2022/12/01 08:57:10;;;;;;;;;;;4.90;90.80;;;;;;4995658;28;19999;-77
2022/12/01 08:59:36;;;;;;;;;;;4.90;90.80;;;;;;4993357;28;19932;-76
2022/12/01 09:02:01;;;;;;;;;;;4.90;90.80;;;;;;4992367;28;19969;-77
2022/12/01 09:04:26;;;;;;;;;;;5.00;90.80;;;;;;4995429;28;19988;-77
2022/12/01 09:06:52;;;;;;;;;;;5.00;90.80;;;;;;4992835;28;19922;-76
2022/12/01 09:09:19;;;;;;;;;;;5.00;90.80;;;;;;4990947;28;19922;-78
2022/12/01 09:11:45;;;;;;;;;;;5.00;90.70;;;;;;4995427;28;20618;-78
2022/12/01 09:14:11;;;;;;;;;;;5.00;90.70;;;;;;4992255;28;20429;-77
2022/12/01 09:16:37;;;;;;;;;;;5.10;90.80;;;;;;4981816;28;19933;-77
2022/12/01 09:19:02;;;;;;;;;;;5.10;90.70;;;;;;4993466;28;19925;-77
2022/12/01 09:21:29;;;;;;;;;;;5.20;90.80;;;;;;4996030;28;20397;-75
2022/12/01 09:23:55;;;;;;;;;;;5.20;90.70;;;;;;4995413;28;20120;-74
2022/12/01 09:26:20;;;;;;;;;;;5.20;90.70;;;;;;4998340;28;19952;-77
2022/12/01 09:28:46;;;;;;;;;;;5.30;90.70;;;;;;4991949;28;20428;-77
2022/12/01 09:31:12;;;;;;;;;;;5.30;90.70;;;;;;4993193;28;20293;-77
2022/12/01 09:33:38;;;;;;;;;;;5.40;90.70;;;;;;4997468;28;19917;-77
2022/12/01 09:36:03;;;;;;;;;;;5.40;90.70;;;;;;5000695;28;19971;-76
2022/12/01 09:38:29;;;;;;;;;;;5.40;90.70;;;;;;4998451;28;19926;-77
2022/12/01 09:40:55;;;;;;;;;;;5.50;90.70;;;;;;4999651;28;19976;-76
2022/12/01 09:43:24;;;;;;;;;;;5.50;90.70;;;;;;4997309;28;19922;-77
2022/12/01 09:45:54;;;;;;;;;;;5.60;90.70;;;;;;4986336;28;19932;-76
2022/12/01 09:48:23;;;;;;;;;;;5.60;90.60;;;;;;4991058;28;19964;-76
2022/12/01 09:50:48;;;;;;;;;;;5.70;90.60;;;;;;5004792;28;19921;-76
2022/12/01 09:53:15;;;;;;;;;;;5.70;90.60;;;;;;5012172;28;19931;-77
2022/12/01 09:55:41;;;;;;;;;;;5.80;90.60;;;;;;5004920;28;19956;-76
2022/12/01 09:58:08;;;;;;;;;;;5.90;90.60;;;;;;4988798;28;19925;-76
2022/12/01 10:00:34;;;;;;;;;;;5.90;90.60;;;;;;4981868;28;19925;-75
2022/12/01 10:03:18;;;;;;;;;;;6.10;90.70;;;;;;5002209;28;19991;-78
2022/12/01 10:05:44;;;;;;;;;;;6.20;90.70;;;;;;4987310;28;19968;-76
2022/12/01 10:08:17;;;;;;;;;;;6.40;90.80;;;;;;4985732;28;19968;-76
2022/12/01 10:10:44;;;;;;;;;;;6.70;90.80;;;;;;5004740;28;20007;-76
2022/12/01 10:13:20;;;;;;;;;;;6.80;90.70;;;;;;5008971;28;19933;-75
2022/12/01 10:15:48;;;;;;;;;;;7.00;90.60;;;;;;5013565;28;19928;-77
2022/12/01 10:18:33;;;;;;;;;;;7.20;90.60;;;;;;5014320;28;19937;-77
2022/12/01 10:21:01;;;;;;;;;;;7.30;90.50;;;;;;5017497;28;19921;-76
2022/12/01 10:23:27;;;;;;;;;;;7.50;90.50;;;;;;5013594;28;19973;-78
2022/12/01 10:26:07;;;;;;;;;;;7.60;90.40;;;;;;5014206;28;19976;-78
2022/12/01 10:28:45;;;;;;;;;;;7.80;90.40;;;;;;5013103;28;19968;-77
2022/12/01 10:31:17;;;;;;;;;;;7.90;90.30;;;;;;5011951;28;19929;-77
2022/12/01 10:34:18;;;;;;;;;;;8.00;90.30;;;;;;5007599;28;19944;-78
2022/12/01 10:36:44;;;;;;;;;;;8.20;90.30;;;;;;5013115;28;19917;-78
2022/12/01 10:39:14;;;;;;;;;;;8.30;90.20;;;;;;4996963;28;20025;-77
2022/12/01 10:41:39;;;;;;;;;;;8.40;90.10;;;;;;4998672;28;20318;-77
2022/12/01 10:44:05;;;;;;;;;;;8.40;90.00;;;;;;5008606;28;20467;-77
2022/12/01 10:46:38;;;;;;;;;;;8.50;90.00;;;;;;5011595;28;19948;-77
2022/12/01 10:49:15;;;;;;;;;;;8.60;90.00;;;;;;4993596;28;19940;-76
2022/12/01 10:51:46;;;;;;;;;;;8.70;90.00;;;;;;4999536;28;19983;-76
2022/12/01 10:54:12;;;;;;;;;;;8.80;89.90;;;;;;4984439;28;19921;-76
2022/12/01 10:56:42;;;;;;;;;;;8.90;89.80;;;;;;5010773;28;20287;-78
2022/12/01 10:59:20;;;;;;;;;;;8.90;89.50;;;;;;4977500;28;19925;-78
2022/12/01 11:01:45;;;;;;;;;;;8.90;89.50;;;;;;5002054;28;19981;-75
2022/12/01 11:04:43;;;;;;;;;;;9.00;89.50;;;;;;5003351;28;20449;-76
2022/12/01 11:07:19;;;;;;;;;;;9.00;89.50;;;;;;4993637;28;19921;-76
2022/12/01 11:09:45;;;;;;;;;;;9.10;89.50;;;;;;4992835;28;20405;-76
2022/12/01 11:12:12;;;;;;;;;;;9.20;89.50;;;;;;5009716;28;19921;-78
2022/12/01 11:14:46;;;;;;;;;;;9.30;89.40;;;;;;5006353;28;19918;-78
2022/12/01 11:17:25;;;;;;;;;;;9.40;89.40;;;;;;5009122;28;20334;-76
2022/12/01 11:19:50;;;;;;;;;;;9.50;89.30;;;;;;5006620;28;19933;-76
2022/12/01 11:22:26;;;;;;;;;;;9.60;89.10;;;;;;5003023;28;19925;-76
2022/12/01 11:24:51;;;;;;;;;;;9.70;88.80;;;;;;5004713;28;19921;-78
2022/12/01 11:27:18;;;;;;;;;;;9.70;88.70;;;;;;5002279;28;19918;-78
2022/12/01 11:29:47;;;;;;;;;;;9.80;88.50;;;;;;5004879;28;19925;-75
2022/12/01 11:32:20;;;;;;;;;;;9.80;88.40;;;;;;5007713;28;19936;-77
2022/12/01 11:34:53;;;;;;;;;;;9.80;88.30;;;;;;5015505;28;19945;-77
2022/12/01 11:37:19;;;;;;;;;;;9.70;88.20;;;;;;5016829;28;19917;-76
2022/12/01 11:39:44;;;;;;;;;;;9.60;88.10;;;;;;5008937;28;19944;-76
2022/12/01 11:42:13;;;;;;;;;;;9.60;88.30;;;;;;5009358;28;19918;-76
2022/12/01 11:44:38;;;;;;;;;;;9.60;88.30;;;;;;5013707;28;19922;-76
2022/12/01 11:47:13;;;;;;;;;;;9.50;88.30;;;;;;5009127;28;20364;-76
2022/12/01 11:49:39;;;;;;;;;;;9.40;88.30;;;;;;5009828;28;19922;-77
2022/12/01 11:52:31;;;;;;;;;;;9.40;88.30;;;;;;4989936;28;19957;-75
2022/12/01 11:54:57;;;;;;;;;;;9.40;88.30;;;;;;4965861;28;19977;-77
2022/12/01 11:57:23;;;;;;;;;;;9.40;88.30;;;;;;5006402;28;19917;-76
2022/12/01 11:59:49;;;;;;;;;;;9.40;88.20;;;;;;5006278;28;19991;-77
2022/12/01 12:02:33;;;;;;;;;;;9.40;88.20;;;;;;4996421;28;20301;-79
2022/12/01 12:05:03;;;;;;;;;;;9.30;88.00;;;;;;4998554;28;19926;-78
2022/12/01 12:07:34;;;;;;;;;;;9.40;88.10;;;;;;4987306;28;21900;-77
2022/12/01 12:09:59;;;;;;;;;;;9.30;88.10;;;;;;4999408;28;20015;-77
2022/12/01 12:12:29;;;;;;;;;;;9.30;88.10;;;;;;4991596;28;19945;-73
2022/12/01 12:14:58;;;;;;;;;;;9.20;88.10;;;;;;4979270;28;20000;-76
2022/12/01 12:17:23;;;;;;;;;;;9.20;88.10;;;;;;4983496;28;19953;-77
2022/12/01 12:19:58;;;;;;;;;;;9.20;88.00;;;;;;4998819;28;19964;-72
2022/12/01 12:22:43;;;;;;;;;;;9.30;88.10;;;;;;4983369;28;19937;-75
2022/12/01 12:25:14;;;;;;;;;;;9.20;88.00;;;;;;4997965;28;20008;-75
2022/12/01 12:27:58;;;;;;;;;;;9.20;88.10;;;;;;4994283;28;19922;-75
2022/12/01 12:30:28;;;;;;;;;;;9.20;88.20;;;;;;4993336;28;19964;-76
2022/12/01 12:33:12;;;;;;;;;;;9.10;88.10;;;;;;4991980;28;19961;-76
2022/12/01 12:35:53;;;;;;;;;;;9.10;88.10;;;;;;4995153;28;19933;-76
2022/12/01 12:38:19;;;;;;;;;;;9.10;88.10;;;;;;4974059;28;20000;-77
2022/12/01 12:41:07;;;;;;;;;;;9.10;88.10;;;;;;4984061;28;20354;-76
2022/12/01 12:43:55;;;;;;;;;;;9.10;88.90;;;;;;4995127;28;19922;-76
2022/12/01 12:46:24;;;;;;;;;;;9.00;88.10;;;;;;4982182;28;19926;-76
2022/12/01 12:48:52;;;;;;;;;;;9.00;88.20;;;;;;4994715;28;19930;-77
2022/12/01 12:51:22;;;;;;;;;;;9.00;88.20;;;;;;4993484;28;20094;-77
2022/12/01 12:54:06;;;;;;;;;;;9.00;88.20;;;;;;4990946;28;19922;-76
2022/12/01 12:56:32;;;;;;;;;;;9.00;88.20;;;;;;4982331;28;20606;-77
2022/12/01 12:59:08;;;;;;;;;;;9.00;88.20;;;;;;4977228;28;19928;-76
2022/12/01 13:01:37;;;;;;;;;;;9.00;88.20;;;;;;4983207;28;20378;-76
2022/12/01 13:04:23;;;;;;;;;;;9.00;88.20;;;;;;4980411;28;19937;-76
2022/12/01 13:06:50;;;;;;;;;;;9.00;88.10;;;;;;5007452;28;20424;-76
2022/12/01 13:09:17;;;;;;;;;;;9.00;88.00;;;;;;4994874;28;19936;-78
2022/12/01 13:11:42;;;;;;;;;;;9.00;88.00;;;;;;5001802;28;20355;-76
2022/12/01 13:14:12;;;;;;;;;;;8.90;88.10;;;;;;4996904;28;19926;-78
2022/12/01 13:16:41;;;;;;;;;;;8.80;88.10;;;;;;5000913;28;19926;-78
2022/12/01 13:19:10;;;;;;;;;;;8.90;88.20;;;;;;4997457;28;20378;-78
2022/12/01 13:21:38;;;;;;;;;;;8.80;88.20;;;;;;5001965;28;19925;-78
2022/12/01 13:24:04;;;;;;;;;;;8.80;88.30;;;;;;4998739;28;20350;-77
2022/12/01 13:26:29;;;;;;;;;;;8.80;88.30;;;;;;4997479;28;20032;-77
2022/12/01 13:28:55;;;;;;;;;;;8.80;88.20;;;;;;4992798;28;19925;-79
2022/12/01 13:31:20;;;;;;;;;;;8.80;88.10;;;;;;4999837;28;19924;-77
2022/12/01 13:33:53;;;;;;;;;;;8.80;88.10;;;;;;4999920;28;19921;-76
2022/12/01 13:36:18;;;;;;;;;;;8.80;88.20;;;;;;4993701;28;19932;-77
2022/12/01 13:38:51;;;;;;;;;;;8.80;88.20;;;;;;4999431;28;19925;-77
2022/12/01 13:41:16;;;;;;;;;;;8.80;88.20;;;;;;4996675;28;19950;-77
2022/12/01 13:43:48;;;;;;;;;;;8.80;88.30;;;;;;4996937;28;19921;-75
2022/12/01 13:46:24;;;;;;;;;;;8.80;88.30;;;;;;4995527;28;21909;-76
2022/12/01 13:48:50;;;;;;;;;;;8.80;88.20;;;;;;4994996;28;20608;-76
2022/12/01 13:51:16;;;;;;;;;;;8.80;88.10;;;;;;4997630;28;19925;-76
2022/12/01 13:54:01;;;;;;;;;;;8.70;88.10;;;;;;4995649;28;19940;-76
2022/12/01 13:56:36;;;;;;;;;;;8.70;88.10;;;;;;4999014;28;20410;-77
2022/12/01 13:59:02;;;;;;;;;;;8.70;88.10;;;;;;4995811;28;19918;-77
2022/12/01 14:01:30;;;;;;;;;;;8.70;88.20;;;;;;4997605;28;19925;-76
2022/12/01 14:04:01;;;;;;;;;;;8.60;88.10;;;;;;5011405;28;19930;-77
2022/12/01 14:06:49;;;;;;;;;;;8.60;88.20;;;;;;4992460;28;19921;-77
2022/12/01 14:09:31;;;;;;;;;;;8.60;88.20;;;;;;4990574;28;19983;-76
2022/12/01 14:11:59;;;;;;;;;;;8.50;88.20;;;;;;4997518;28;19917;-77
2022/12/01 14:14:25;;;;;;;;;;;8.50;88.20;;;;;;4994716;28;19996;-77
2022/12/01 14:16:51;;;;;;;;;;;8.50;88.20;;;;;;4994273;28;21248;-78
2022/12/01 14:19:35;;;;;;;;;;;8.50;88.20;;;;;;4995255;28;19960;-76
2022/12/01 14:22:01;;;;;;;;;;;8.50;88.20;;;;;;4996502;28;19964;-77
2022/12/01 14:24:30;;;;;;;;;;;8.50;88.20;;;;;;4995337;28;19922;-76
2022/12/01 14:26:55;;;;;;;;;;;8.50;88.30;;;;;;4998668;28;19918;-77
2022/12/01 14:29:24;;;;;;;;;;;8.50;88.30;;;;;;4997372;28;19926;-76
2022/12/01 14:31:50;;;;;;;;;;;8.50;88.30;;;;;;4994255;28;19964;-77
2022/12/01 14:34:17;;;;;;;;;;;8.50;88.30;;;;;;4994621;28;20374;-76
2022/12/01 14:36:51;;;;;;;;;;;8.40;88.20;;;;;;4997527;28;20583;-76
2022/12/01 14:39:17;;;;;;;;;;;8.40;88.30;;;;;;4991028;28;19929;-77
2022/12/01 14:41:44;;;;;;;;;;;8.40;88.30;;;;;;4993775;28;19922;-76
2022/12/01 14:44:30;;;;;;;;;;;8.30;88.30;;;;;;4989752;28;19926;-76
2022/12/01 14:47:00;;;;;;;;;;;8.30;88.30;;;;;;4990887;28;19921;-77
2022/12/01 14:49:44;;;;;;;;;;;8.20;88.40;;;;;;4996721;28;19960;-76
2022/12/01 14:52:33;;;;;;;;;;;8.10;88.30;;;;;;4992408;28;19922;-76
2022/12/01 14:54:59;;;;;;;;;;;8.10;88.40;;;;;;4983759;28;19964;-76
2022/12/01 14:57:31;;;;;;;;;;;8.00;88.40;;;;;;4990293;28;19968;-77
2022/12/01 15:00:03;;;;;;;;;;;8.00;88.50;;;;;;5000672;28;19921;-78
2022/12/01 15:02:29;;;;;;;;;;;7.90;88.40;;;;;;4993708;28;19926;-76
2022/12/01 15:05:06;;;;;;;;;;;7.90;88.40;;;;;;4991208;28;19948;-76
2022/12/01 15:07:39;;;;;;;;;;;7.80;88.40;;;;;;4987924;28;19957;-77
2022/12/01 15:10:05;;;;;;;;;;;7.70;88.50;;;;;;4989772;28;20378;-77